Th2 — LI3227 — position and weather

sailwx.info

Track history (hours):
 
Tides and Currents Weather Stations Pressure Air Temp Water Temp Dewpoint Dewpoint Depression Visibility Wind Speed Wind Dir Waves Ship Positions

Th2

Last reported at 2017-Sep-29 12:56 UTC. Time now 2017-Nov-20 00:30 UTC.
Position N 70°15' E 019°30'.
Warning: this ship's position is 51 days out of date.

Length 7 m.

Type: Fishing. MMSI: 258087490.

Date/timePositionNaut miles runAvg speedWind from/ knotsBaromVisibWave heightAir tempDewpointWater temp
2017-Sep-29 12:56N 70°15' E 019°30'0 0.0
2017-Sep-29 12:09N 70°15' E 019°30'0 0.0
2017-Sep-29 11:25N 70°15' E 019°30'0 0.0
2017-Sep-29 10:56N 70°15' E 019°30'0 0.0
2017-Sep-29 10:27N 70°15' E 019°30'0 0.0
2017-Sep-29 09:59N 70°15' E 019°30'0 0.0
2017-Sep-29 09:30N 70°15' E 019°30'0 0.0
2017-Sep-29 08:51N 70°15' E 019°30'0 0.0
2017-Sep-29 08:22N 70°15' E 019°30'0 0.0
2017-Sep-29 07:33N 70°15' E 019°30'0 0.0
2017-Sep-29 07:26N 70°15' E 019°30'0 0.0
2017-Sep-29 06:19N 70°15' E 019°30'0 0.0
2017-Sep-29 05:36N 70°15' E 019°30'0 0.0
2017-Sep-29 05:26N 70°15' E 019°30'0 0.0
2017-Sep-29 04:09N 70°15' E 019°30'0 0.0
2017-Sep-29 03:54N 70°15' E 019°30'0 0.0
2017-Sep-29 03:14N 70°15' E 019°30'0 0.0
2017-Sep-29 02:57N 70°15' E 019°30'0 0.0
2017-Sep-29 02:29N 70°15' E 019°30'0 0.0
2017-Sep-29 01:58N 70°15' E 019°30'0 0.0
2017-Sep-29 01:21N 70°15' E 019°30'0 0.0
2017-Sep-29 00:56N 70°15' E 019°30'0 0.0
2017-Sep-29 00:14N 70°15' E 019°30'0 0.0
2017-Sep-28 23:22N 70°15' E 019°30'0 0.0
2017-Sep-28 23:00N 70°15' E 019°30'0 0.0
2017-Sep-28 22:17N 70°15' E 019°30'0 0.0
2017-Sep-28 22:00N 70°15' E 019°30'0 0.0
2017-Sep-28 21:28N 70°15' E 019°30'0 0.0
2017-Sep-28 20:53N 70°15' E 019°30'0 0.0
2017-Sep-28 20:20N 70°15' E 019°30'0 0.0
2017-Sep-28 20:00N 70°15' E 019°30'0 0.0
2017-Sep-28 19:26N 70°15' E 019°30'0 0.0
2017-Sep-28 18:21N 70°15' E 019°30'0 0.0
2017-Sep-28 17:56N 70°15' E 019°30'0 0.0
2017-Sep-28 17:26N 70°15' E 019°30'0 0.0
2017-Sep-28 16:45N 70°15' E 019°30'0 0.0
2017-Sep-28 16:16N 70°15' E 019°30'0 0.0
2017-Sep-28 16:00N 70°15' E 019°30'0 0.0
2017-Sep-28 14:59N 70°15' E 019°30'0 0.0
2017-Sep-28 14:30N 70°15' E 019°30'0 0.0
2017-Sep-28 13:50N 70°15' E 019°30'0 0.0
2017-Sep-28 13:30N 70°15' E 019°30'0 0.0
2017-Sep-28 13:00N 70°15' E 019°30'0 0.0
2017-Sep-28 12:27N 70°15' E 019°30'0 0.0
2017-Sep-26 16:00N 70°15' E 019°30'0 0.1
2017-Sep-26 14:10N 70°15' E 019°30'0 0.6
2017-Sep-26 13:57N 70°15' E 019°30'4 8.6
2017-Sep-26 13:28N 70°16' E 019°19'1 3.0
2017-Sep-26 12:59N 70°18' E 019°16'0 1.0
2017-Sep-26 12:30N 70°18' E 019°15'1 1.2
2017-Sep-26 11:59N 70°18' E 019°13'3 5.9
2017-Sep-26 11:30N 70°19' E 019°05'0 0.2
2017-Sep-26 11:00N 70°19' E 019°05'0 0.2
2017-Sep-26 10:29N 70°19' E 019°06'1 1.4
2017-Sep-26 09:59N 70°18' E 019°05'1 1.8
2017-Sep-26 09:28N 70°19' E 019°05'0 0.8
2017-Sep-26 09:00N 70°19' E 019°04'0 0.2
2017-Sep-26 08:11N 70°19' E 019°04'0 0.3
2017-Sep-26 08:00N 70°19' E 019°04'0 0.5
2017-Sep-26 07:26N 70°19' E 019°05'0 0.4
2017-Sep-26 07:00N 70°19' E 019°05'0 0.1
2017-Sep-26 06:30N 70°19' E 019°06'0 0.3
2017-Sep-26 05:59N 70°19' E 019°06'0 0.1
2017-Sep-26 05:29N 70°19' E 019°06'0 0.2
2017-Sep-26 04:59N 70°19' E 019°06'2 3.7
2017-Sep-26 04:29N 70°18' E 019°11'7 9.8
2017-Sep-26 03:44N 70°15' E 019°30'0 0.0
2017-Sep-26 03:28N 70°15' E 019°30'0 0.0
2017-Sep-26 02:56N 70°15' E 019°30'0 0.0
2017-Sep-26 02:29N 70°15' E 019°30'0 0.0
2017-Sep-26 01:55N 70°15' E 019°30'0 0.0
2017-Sep-26 01:28N 70°15' E 019°30'0 0.0
2017-Sep-26 00:59N 70°15' E 019°30'0 0.0
2017-Sep-26 00:29N 70°15' E 019°30'0 0.0
2017-Sep-25 23:59N 70°15' E 019°30'0 0.0
2017-Sep-25 23:29N 70°15' E 019°30'0 0.0
2017-Sep-25 22:41N 70°15' E 019°30'0 0.0
2017-Sep-25 22:29N 70°15' E 019°30'0 0.0
2017-Sep-25 21:54N 70°15' E 019°30'0 0.0
2017-Sep-25 21:24N 70°15' E 019°30'0 0.0
2017-Sep-25 20:51N 70°15' E 019°30'0 0.0
2017-Sep-25 20:24N 70°15' E 019°30'0 0.0
2017-Sep-25 19:57N 70°15' E 019°30'0 0.0
2017-Sep-25 19:22N 70°15' E 019°30'0 0.0
2017-Sep-25 18:57N 70°15' E 019°30'0 0.0
2017-Sep-25 18:30N 70°15' E 019°30'0 0.0
2017-Sep-25 17:57N 70°15' E 019°30'0 0.0
2017-Sep-25 17:28N 70°15' E 019°30'0 0.0
2017-Sep-25 15:57N 70°15' E 019°30'4 7.9
2017-Sep-25 15:30N 70°18' E 019°35'3 5.2
2017-Sep-25 15:00N 70°19' E 019°42'2 4.2
2017-Sep-25 14:30N 70°18' E 019°48'0 0.7
2017-Sep-25 13:59N 70°18' E 019°47'2 4.1
2017-Sep-25 13:30N 70°16' E 019°44'0 0.6
2017-Sep-25 12:57N 70°17' E 019°43'1 1.1
2017-Sep-25 12:30N 70°17' E 019°42'510.0
2017-Sep-25 11:58N 70°18' E 019°27'5 9.7
2017-Sep-25 11:30N 70°18' E 019°13'3 5.1
2017-Sep-25 10:59N 70°19' E 019°05'1 2.8
2017-Sep-25 10:29N 70°18' E 019°01'0 0.5
2017-Sep-25 09:59N 70°18' E 019°01'2 3.1
2017-Sep-25 09:26N 70°19' E 019°05'0 0.5
2017-Sep-25 09:00N 70°19' E 019°05'0 0.8
2017-Sep-25 08:30N 70°19' E 019°05'1 1.5
2017-Sep-25 07:59N 70°18' E 019°04'1 1.5
2017-Sep-25 07:30N 70°18' E 019°06'0 0.9
2017-Sep-25 06:59N 70°19' E 019°04'1 1.2
2017-Sep-25 06:30N 70°18' E 019°03'0 0.9
2017-Sep-25 05:58N 70°19' E 019°04'0 0.3
2017-Sep-25 05:28N 70°19' E 019°05'510.9
2017-Sep-25 05:00N 70°17' E 019°19'4 0.4
2017-Sep-24 17:36N 70°15' E 019°30'0 0.0
2017-Sep-24 16:54N 70°15' E 019°30'1 2.0
2017-Sep-24 16:27N 70°15' E 019°27'3 5.3
2017-Sep-24 15:59N 70°16' E 019°21'2 4.5
2017-Sep-24 15:29N 70°17' E 019°16'1 1.9
2017-Sep-24 15:00N 70°18' E 019°14'0 0.4
2017-Sep-24 14:26N 70°18' E 019°13'0 0.3
2017-Sep-24 13:59N 70°18' E 019°13'0 0.9
2017-Sep-24 13:29N 70°18' E 019°11'2 4.9
2017-Sep-24 12:59N 70°18' E 019°19'0 0.8
2017-Sep-24 12:29N 70°18' E 019°18'1 1.4
2017-Sep-24 11:56N 70°19' E 019°16'1 2.6
2017-Sep-24 11:29N 70°20' E 019°18'1 1.1
2017-Sep-24 11:00N 70°20' E 019°16'0 0.9
2017-Sep-24 10:30N 70°20' E 019°15'3 6.6
2017-Sep-24 09:59N 70°18' E 019°07'2 3.5
2017-Sep-24 09:30N 70°16' E 019°03'0 0.3
2017-Sep-24 09:00N 70°16' E 019°03'1 1.9
2017-Sep-24 08:30N 70°16' E 019°06'0 0.3
2017-Sep-24 07:55N 70°16' E 019°06'0 0.4
2017-Sep-24 07:27N 70°16' E 019°06'1 1.4
2017-Sep-24 07:00N 70°16' E 019°07'3 5.0
2017-Sep-24 06:29N 70°18' E 019°11'0 0.7
2017-Sep-24 06:00N 70°18' E 019°12'0 0.1
2017-Sep-24 05:30N 70°18' E 019°12'4 8.7
2017-Sep-24 05:00N 70°16' E 019°24'  
2017-Sep-21 16:56N 70°15' E 019°30'4 8.0
2017-Sep-21 16:27N 70°18' E 019°37'1 1.7
2017-Sep-21 15:46N 70°18' E 019°40'0 0.1
2017-Sep-21 15:28N 70°18' E 019°40'0 0.7
2017-Sep-21 14:58N 70°17' E 019°41'1 1.9
2017-Sep-21 14:30N 70°17' E 019°43'0 0.5
2017-Sep-21 13:59N 70°17' E 019°44'0 0.7
2017-Sep-21 13:30N 70°17' E 019°45'3 6.6
2017-Sep-21 13:00N 70°15' E 019°54'0 0.3
2017-Sep-21 12:30N 70°16' E 019°54'0 0.5
2017-Sep-21 12:00N 70°15' E 019°53'0 0.5
2017-Sep-21 11:29N 70°15' E 019°53'0 0.5
2017-Sep-21 11:00N 70°15' E 019°52'2 3.1
2017-Sep-21 10:30N 70°16' E 019°48'0 0.9
2017-Sep-21 09:57N 70°16' E 019°47'1 1.5
2017-Sep-21 09:30N 70°17' E 019°45'0 0.6
2017-Sep-21 08:58N 70°17' E 019°45'0 0.4
2017-Sep-21 08:30N 70°17' E 019°45'3 5.1
2017-Sep-21 07:54N 70°18' E 019°36'4 0.1
2017-Sep-19 17:05N 70°15' E 019°30'0 0.1
2017-Sep-19 16:59N 70°15' E 019°30'0 0.0
2017-Sep-19 16:28N 70°15' E 019°30'0 0.8
2017-Sep-19 15:52N 70°15' E 019°29'1 3.0
2017-Sep-19 15:29N 70°14' E 019°26'1 1.6
2017-Sep-19 14:43N 70°15' E 019°22'1 6.2
2017-Sep-19 14:30N 70°15' E 019°18'0 0.3
2017-Sep-19 14:00N 70°15' E 019°18'1 1.6
2017-Sep-19 13:27N 70°16' E 019°19'0 0.7
2017-Sep-19 13:00N 70°15' E 019°20'  
Track history (hours):
 
Tides and Currents Weather Stations Pressure Air Temp Water Temp Dewpoint Dewpoint Depression Visibility Wind Speed Wind Dir Waves Ship Positions

Th2

Last reported at 2017-Sep-29 12:56 UTC. Time now 2017-Nov-20 00:30 UTC.
Position N 70°15' E 019°30'.
Warning: this ship's position is 51 days out of date.

Length 7 m.

Type: Fishing. MMSI: 258087490.

Date/timePositionNaut miles runAvg speedWind from/ knotsBaromVisibWave heightAir tempDewpointWater temp
2017-Sep-29 12:56N 70°15' E 019°30'0 0.0
2017-Sep-29 12:09N 70°15' E 019°30'0 0.0
2017-Sep-29 11:25N 70°15' E 019°30'0 0.0
2017-Sep-29 10:56N 70°15' E 019°30'0 0.0
2017-Sep-29 10:27N 70°15' E 019°30'0 0.0
2017-Sep-29 09:59N 70°15' E 019°30'0 0.0
2017-Sep-29 09:30N 70°15' E 019°30'0 0.0
2017-Sep-29 08:51N 70°15' E 019°30'0 0.0
2017-Sep-29 08:22N 70°15' E 019°30'0 0.0
2017-Sep-29 07:33N 70°15' E 019°30'0 0.0
2017-Sep-29 07:26N 70°15' E 019°30'0 0.0
2017-Sep-29 06:19N 70°15' E 019°30'0 0.0
2017-Sep-29 05:36N 70°15' E 019°30'0 0.0
2017-Sep-29 05:26N 70°15' E 019°30'0 0.0
2017-Sep-29 04:09N 70°15' E 019°30'0 0.0
2017-Sep-29 03:54N 70°15' E 019°30'0 0.0
2017-Sep-29 03:14N 70°15' E 019°30'0 0.0
2017-Sep-29 02:57N 70°15' E 019°30'0 0.0
2017-Sep-29 02:29N 70°15' E 019°30'0 0.0
2017-Sep-29 01:58N 70°15' E 019°30'0 0.0
2017-Sep-29 01:21N 70°15' E 019°30'0 0.0
2017-Sep-29 00:56N 70°15' E 019°30'0 0.0
2017-Sep-29 00:14N 70°15' E 019°30'0 0.0
2017-Sep-28 23:22N 70°15' E 019°30'0 0.0
2017-Sep-28 23:00N 70°15' E 019°30'0 0.0
2017-Sep-28 22:17N 70°15' E 019°30'0 0.0
2017-Sep-28 22:00N 70°15' E 019°30'0 0.0
2017-Sep-28 21:28N 70°15' E 019°30'0 0.0
2017-Sep-28 20:53N 70°15' E 019°30'0 0.0
2017-Sep-28 20:20N 70°15' E 019°30'0 0.0
2017-Sep-28 20:00N 70°15' E 019°30'0 0.0
2017-Sep-28 19:26N 70°15' E 019°30'0 0.0
2017-Sep-28 18:21N 70°15' E 019°30'0 0.0
2017-Sep-28 17:56N 70°15' E 019°30'0 0.0
2017-Sep-28 17:26N 70°15' E 019°30'0 0.0
2017-Sep-28 16:45N 70°15' E 019°30'0 0.0
2017-Sep-28 16:16N 70°15' E 019°30'0 0.0
2017-Sep-28 16:00N 70°15' E 019°30'0 0.0
2017-Sep-28 14:59N 70°15' E 019°30'0 0.0
2017-Sep-28 14:30N 70°15' E 019°30'0 0.0
2017-Sep-28 13:50N 70°15' E 019°30'0 0.0
2017-Sep-28 13:30N 70°15' E 019°30'0 0.0
2017-Sep-28 13:00N 70°15' E 019°30'0 0.0
2017-Sep-28 12:27N 70°15' E 019°30'0 0.0
2017-Sep-26 16:00N 70°15' E 019°30'0 0.1
2017-Sep-26 14:10N 70°15' E 019°30'0 0.6
2017-Sep-26 13:57N 70°15' E 019°30'4 8.6
2017-Sep-26 13:28N 70°16' E 019°19'1 3.0
2017-Sep-26 12:59N 70°18' E 019°16'0 1.0
2017-Sep-26 12:30N 70°18' E 019°15'1 1.2
2017-Sep-26 11:59N 70°18' E 019°13'3 5.9
2017-Sep-26 11:30N 70°19' E 019°05'0 0.2
2017-Sep-26 11:00N 70°19' E 019°05'0 0.2
2017-Sep-26 10:29N 70°19' E 019°06'1 1.4
2017-Sep-26 09:59N 70°18' E 019°05'1 1.8
2017-Sep-26 09:28N 70°19' E 019°05'0 0.8
2017-Sep-26 09:00N 70°19' E 019°04'0 0.2
2017-Sep-26 08:11N 70°19' E 019°04'0 0.3
2017-Sep-26 08:00N 70°19' E 019°04'0 0.5
2017-Sep-26 07:26N 70°19' E 019°05'0 0.4
2017-Sep-26 07:00N 70°19' E 019°05'0 0.1
2017-Sep-26 06:30N 70°19' E 019°06'0 0.3
2017-Sep-26 05:59N 70°19' E 019°06'0 0.1
2017-Sep-26 05:29N 70°19' E 019°06'0 0.2
2017-Sep-26 04:59N 70°19' E 019°06'2 3.7
2017-Sep-26 04:29N 70°18' E 019°11'7 9.8
2017-Sep-26 03:44N 70°15' E 019°30'0 0.0
2017-Sep-26 03:28N 70°15' E 019°30'0 0.0
2017-Sep-26 02:56N 70°15' E 019°30'0 0.0
2017-Sep-26 02:29N 70°15' E 019°30'0 0.0
2017-Sep-26 01:55N 70°15' E 019°30'0 0.0
2017-Sep-26 01:28N 70°15' E 019°30'0 0.0
2017-Sep-26 00:59N 70°15' E 019°30'0 0.0
2017-Sep-26 00:29N 70°15' E 019°30'0 0.0
2017-Sep-25 23:59N 70°15' E 019°30'0 0.0
2017-Sep-25 23:29N 70°15' E 019°30'0 0.0
2017-Sep-25 22:41N 70°15' E 019°30'0 0.0
2017-Sep-25 22:29N 70°15' E 019°30'0 0.0
2017-Sep-25 21:54N 70°15' E 019°30'0 0.0
2017-Sep-25 21:24N 70°15' E 019°30'0 0.0
2017-Sep-25 20:51N 70°15' E 019°30'0 0.0
2017-Sep-25 20:24N 70°15' E 019°30'0 0.0
2017-Sep-25 19:57N 70°15' E 019°30'0 0.0
2017-Sep-25 19:22N 70°15' E 019°30'0 0.0
2017-Sep-25 18:57N 70°15' E 019°30'0 0.0
2017-Sep-25 18:30N 70°15' E 019°30'0 0.0
2017-Sep-25 17:57N 70°15' E 019°30'0 0.0
2017-Sep-25 17:28N 70°15' E 019°30'0 0.0
2017-Sep-25 15:57N 70°15' E 019°30'4 7.9
2017-Sep-25 15:30N 70°18' E 019°35'3 5.2
2017-Sep-25 15:00N 70°19' E 019°42'2 4.2
2017-Sep-25 14:30N 70°18' E 019°48'0 0.7
2017-Sep-25 13:59N 70°18' E 019°47'2 4.1
2017-Sep-25 13:30N 70°16' E 019°44'0 0.6
2017-Sep-25 12:57N 70°17' E 019°43'1 1.1
2017-Sep-25 12:30N 70°17' E 019°42'510.0
2017-Sep-25 11:58N 70°18' E 019°27'5 9.7
2017-Sep-25 11:30N 70°18' E 019°13'3 5.1
2017-Sep-25 10:59N 70°19' E 019°05'1 2.8
2017-Sep-25 10:29N 70°18' E 019°01'0 0.5
2017-Sep-25 09:59N 70°18' E 019°01'2 3.1
2017-Sep-25 09:26N 70°19' E 019°05'0 0.5
2017-Sep-25 09:00N 70°19' E 019°05'0 0.8
2017-Sep-25 08:30N 70°19' E 019°05'1 1.5
2017-Sep-25 07:59N 70°18' E 019°04'1 1.5
2017-Sep-25 07:30N 70°18' E 019°06'0 0.9
2017-Sep-25 06:59N 70°19' E 019°04'1 1.2
2017-Sep-25 06:30N 70°18' E 019°03'0 0.9
2017-Sep-25 05:58N 70°19' E 019°04'0 0.3
2017-Sep-25 05:28N 70°19' E 019°05'510.9
2017-Sep-25 05:00N 70°17' E 019°19'4 0.4
2017-Sep-24 17:36N 70°15' E 019°30'0 0.0
2017-Sep-24 16:54N 70°15' E 019°30'1 2.0
2017-Sep-24 16:27N 70°15' E 019°27'3 5.3
2017-Sep-24 15:59N 70°16' E 019°21'2 4.5
2017-Sep-24 15:29N 70°17' E 019°16'1 1.9
2017-Sep-24 15:00N 70°18' E 019°14'0 0.4
2017-Sep-24 14:26N 70°18' E 019°13'0 0.3
2017-Sep-24 13:59N 70°18' E 019°13'0 0.9
2017-Sep-24 13:29N 70°18' E 019°11'2 4.9
2017-Sep-24 12:59N 70°18' E 019°19'0 0.8
2017-Sep-24 12:29N 70°18' E 019°18'1 1.4
2017-Sep-24 11:56N 70°19' E 019°16'1 2.6
2017-Sep-24 11:29N 70°20' E 019°18'1 1.1
2017-Sep-24 11:00N 70°20' E 019°16'0 0.9
2017-Sep-24 10:30N 70°20' E 019°15'3 6.6
2017-Sep-24 09:59N 70°18' E 019°07'2 3.5
2017-Sep-24 09:30N 70°16' E 019°03'0 0.3
2017-Sep-24 09:00N 70°16' E 019°03'1 1.9
2017-Sep-24 08:30N 70°16' E 019°06'0 0.3
2017-Sep-24 07:55N 70°16' E 019°06'0 0.4
2017-Sep-24 07:27N 70°16' E 019°06'1 1.4
2017-Sep-24 07:00N 70°16' E 019°07'3 5.0
2017-Sep-24 06:29N 70°18' E 019°11'0 0.7
2017-Sep-24 06:00N 70°18' E 019°12'0 0.1
2017-Sep-24 05:30N 70°18' E 019°12'4 8.7
2017-Sep-24 05:00N 70°16' E 019°24'  
2017-Sep-21 16:56N 70°15' E 019°30'4 8.0
2017-Sep-21 16:27N 70°18' E 019°37'1 1.7
2017-Sep-21 15:46N 70°18' E 019°40'0 0.1
2017-Sep-21 15:28N 70°18' E 019°40'0 0.7
2017-Sep-21 14:58N 70°17' E 019°41'1 1.9
2017-Sep-21 14:30N 70°17' E 019°43'0 0.5
2017-Sep-21 13:59N 70°17' E 019°44'0 0.7
2017-Sep-21 13:30N 70°17' E 019°45'3 6.6
2017-Sep-21 13:00N 70°15' E 019°54'0 0.3
2017-Sep-21 12:30N 70°16' E 019°54'0 0.5
2017-Sep-21 12:00N 70°15' E 019°53'0 0.5
2017-Sep-21 11:29N 70°15' E 019°53'0 0.5
2017-Sep-21 11:00N 70°15' E 019°52'2 3.1
2017-Sep-21 10:30N 70°16' E 019°48'0 0.9
2017-Sep-21 09:57N 70°16' E 019°47'1 1.5
2017-Sep-21 09:30N 70°17' E 019°45'0 0.6
2017-Sep-21 08:58N 70°17' E 019°45'0 0.4
2017-Sep-21 08:30N 70°17' E 019°45'3 5.1
2017-Sep-21 07:54N 70°18' E 019°36'4 0.1
2017-Sep-19 17:05N 70°15' E 019°30'0 0.1
2017-Sep-19 16:59N 70°15' E 019°30'0 0.0
2017-Sep-19 16:28N 70°15' E 019°30'0 0.8
2017-Sep-19 15:52N 70°15' E 019°29'1 3.0
2017-Sep-19 15:29N 70°14' E 019°26'1 1.6
2017-Sep-19 14:43N 70°15' E 019°22'1 6.2
2017-Sep-19 14:30N 70°15' E 019°18'0 0.3
2017-Sep-19 14:00N 70°15' E 019°18'1 1.6
2017-Sep-19 13:27N 70°16' E 019°19'0 0.7
2017-Sep-19 13:00N 70°15' E 019°20'  

Dump ship's entire track history